sensor_id;sensor_type;location;lat;lon;timestamp;P1;durP1;ratioP1;P2;durP2;ratioP2
49153;SDS011;49455;52.252;9.124;2023-04-06T00:04:30;8.70;;;4.70;;
49153;SDS011;49455;52.252;9.124;2023-04-06T00:09:31;7.40;;;4.73;;
49153;SDS011;49455;52.252;9.124;2023-04-06T00:14:31;6.30;;;4.40;;
49153;SDS011;49455;52.252;9.124;2023-04-06T00:19:32;7.17;;;4.07;;
49153;SDS011;49455;52.252;9.124;2023-04-06T00:24:33;6.33;;;4.10;;
49153;SDS011;49455;52.252;9.124;2023-04-06T00:29:33;8.43;;;4.40;;
49153;SDS011;49455;52.252;9.124;2023-04-06T00:34:36;6.50;;;4.23;;
49153;SDS011;49455;52.252;9.124;2023-04-06T00:39:37;6.75;;;4.35;;
49153;SDS011;49455;52.252;9.124;2023-04-06T00:44:37;9.30;;;4.10;;
49153;SDS011;49455;52.252;9.124;2023-04-06T00:49:38;7.23;;;4.33;;
49153;SDS011;49455;52.252;9.124;2023-04-06T00:54:38;8.83;;;4.50;;
49153;SDS011;49455;52.252;9.124;2023-04-06T00:59:39;8.50;;;5.13;;
49153;SDS011;49455;52.252;9.124;2023-04-06T01:04:43;9.60;;;4.95;;
49153;SDS011;49455;52.252;9.124;2023-04-06T01:09:53;7.05;;;4.93;;
49153;SDS011;49455;52.252;9.124;2023-04-06T01:14:57;5.97;;;4.15;;
49153;SDS011;49455;52.252;9.124;2023-04-06T01:19:58;7.43;;;4.55;;
49153;SDS011;49455;52.252;9.124;2023-04-06T01:25:03;8.00;;;4.55;;
49153;SDS011;49455;52.252;9.124;2023-04-06T01:30:16;8.23;;;4.93;;
49153;SDS011;49455;52.252;9.124;2023-04-06T01:35:37;10.40;;;4.55;;
49153;SDS011;49455;52.252;9.124;2023-04-06T01:40:50;7.80;;;4.80;;
49153;SDS011;49455;52.252;9.124;2023-04-06T01:45:54;9.23;;;4.95;;
49153;SDS011;49455;52.252;9.124;2023-04-06T01:50:57;8.15;;;4.88;;
49153;SDS011;49455;52.252;9.124;2023-04-06T01:56:03;8.57;;;4.80;;
49153;SDS011;49455;52.252;9.124;2023-04-06T02:01:07;7.70;;;4.72;;
49153;SDS011;49455;52.252;9.124;2023-04-06T02:06:22;8.07;;;5.13;;
49153;SDS011;49455;52.252;9.124;2023-04-06T02:11:23;12.60;;;5.53;;
49153;SDS011;49455;52.252;9.124;2023-04-06T02:16:28;6.47;;;5.10;;
49153;SDS011;49455;52.252;9.124;2023-04-06T02:21:31;6.82;;;5.28;;
49153;SDS011;49455;52.252;9.124;2023-04-06T02:26:32;6.67;;;4.87;;
49153;SDS011;49455;52.252;9.124;2023-04-06T02:31:33;12.83;;;6.07;;
49153;SDS011;49455;52.252;9.124;2023-04-06T02:41:35;9.43;;;4.97;;
49153;SDS011;49455;52.252;9.124;2023-04-06T02:46:37;8.63;;;5.65;;
49153;SDS011;49455;52.252;9.124;2023-04-06T02:51:37;8.07;;;5.33;;
49153;SDS011;49455;52.252;9.124;2023-04-06T02:56:55;6.45;;;5.05;;
49153;SDS011;49455;52.252;9.124;2023-04-06T03:02:00;9.52;;;5.43;;
49153;SDS011;49455;52.252;9.124;2023-04-06T03:07:01;10.83;;;5.60;;
49153;SDS011;49455;52.252;9.124;2023-04-06T03:12:09;8.82;;;5.97;;
49153;SDS011;49455;52.252;9.124;2023-04-06T03:17:21;11.18;;;5.60;;
49153;SDS011;49455;52.252;9.124;2023-04-06T03:22:22;12.10;;;5.57;;
49153;SDS011;49455;52.252;9.124;2023-04-06T03:27:22;9.77;;;5.73;;
49153;SDS011;49455;52.252;9.124;2023-04-06T03:32:24;6.57;;;5.32;;
49153;SDS011;49455;52.252;9.124;2023-04-06T03:37:24;9.03;;;5.80;;
49153;SDS011;49455;52.252;9.124;2023-04-06T03:42:29;8.82;;;5.45;;
49153;SDS011;49455;52.252;9.124;2023-04-06T03:47:37;10.02;;;5.57;;
49153;SDS011;49455;52.252;9.124;2023-04-06T03:52:40;8.68;;;5.78;;
49153;SDS011;49455;52.252;9.124;2023-04-06T03:57:41;9.77;;;6.17;;
49153;SDS011;49455;52.252;9.124;2023-04-06T04:02:41;13.03;;;6.50;;
49153;SDS011;49455;52.252;9.124;2023-04-06T04:07:42;10.03;;;6.13;;
49153;SDS011;49455;52.252;9.124;2023-04-06T04:12:44;10.07;;;6.35;;
49153;SDS011;49455;52.252;9.124;2023-04-06T04:17:52;10.40;;;6.18;;
49153;SDS011;49455;52.252;9.124;2023-04-06T04:22:53;8.93;;;6.03;;
49153;SDS011;49455;52.252;9.124;2023-04-06T04:27:54;11.90;;;7.07;;
49153;SDS011;49455;52.252;9.124;2023-04-06T04:37:57;12.98;;;6.35;;
49153;SDS011;49455;52.252;9.124;2023-04-06T04:48:10;8.77;;;6.47;;
49153;SDS011;49455;52.252;9.124;2023-04-06T04:53:23;10.52;;;6.60;;
49153;SDS011;49455;52.252;9.124;2023-04-06T04:58:25;12.50;;;7.18;;
49153;SDS011;49455;52.252;9.124;2023-04-06T05:03:29;9.18;;;6.63;;
49153;SDS011;49455;52.252;9.124;2023-04-06T05:08:34;9.80;;;6.63;;
49153;SDS011;49455;52.252;9.124;2023-04-06T05:13:35;10.60;;;6.65;;
49153;SDS011;49455;52.252;9.124;2023-04-06T05:18:42;13.10;;;6.47;;
49153;SDS011;49455;52.252;9.124;2023-04-06T05:23:45;11.57;;;6.97;;
49153;SDS011;49455;52.252;9.124;2023-04-06T05:28:48;11.45;;;6.65;;
49153;SDS011;49455;52.252;9.124;2023-04-06T05:33:50;10.43;;;6.93;;
49153;SDS011;49455;52.252;9.124;2023-04-06T05:39:01;9.43;;;6.53;;
49153;SDS011;49455;52.252;9.124;2023-04-06T05:44:24;10.98;;;6.80;;
49153;SDS011;49455;52.252;9.124;2023-04-06T05:49:34;9.82;;;6.70;;
49153;SDS011;49455;52.252;9.124;2023-04-06T05:54:42;12.30;;;7.13;;
49153;SDS011;49455;52.252;9.124;2023-04-06T05:59:43;13.77;;;6.90;;
49153;SDS011;49455;52.252;9.124;2023-04-06T06:04:46;10.63;;;7.18;;
49153;SDS011;49455;52.252;9.124;2023-04-06T06:14:57;13.43;;;7.28;;
49153;SDS011;49455;52.252;9.124;2023-04-06T06:19:59;10.30;;;7.40;;
49153;SDS011;49455;52.252;9.124;2023-04-06T06:25:04;12.35;;;7.68;;
49153;SDS011;49455;52.252;9.124;2023-04-06T06:30:08;11.10;;;6.60;;
49153;SDS011;49455;52.252;9.124;2023-04-06T06:35:12;10.15;;;7.20;;
49153;SDS011;49455;52.252;9.124;2023-04-06T06:40:36;9.35;;;7.03;;
49153;SDS011;49455;52.252;9.124;2023-04-06T06:45:37;10.88;;;7.35;;
49153;SDS011;49455;52.252;9.124;2023-04-06T06:50:38;10.63;;;7.73;;
49153;SDS011;49455;52.252;9.124;2023-04-06T06:55:39;11.23;;;7.80;;
49153;SDS011;49455;52.252;9.124;2023-04-06T07:00:42;11.70;;;7.23;;
49153;SDS011;49455;52.252;9.124;2023-04-06T07:05:46;11.00;;;7.25;;
49153;SDS011;49455;52.252;9.124;2023-04-06T07:10:47;10.60;;;7.35;;
49153;SDS011;49455;52.252;9.124;2023-04-06T07:15:49;9.57;;;6.90;;
49153;SDS011;49455;52.252;9.124;2023-04-06T07:20:50;11.82;;;7.65;;
49153;SDS011;49455;52.252;9.124;2023-04-06T07:25:51;10.93;;;7.20;;
49153;SDS011;49455;52.252;9.124;2023-04-06T07:30:55;11.25;;;6.78;;
49153;SDS011;49455;52.252;9.124;2023-04-06T07:35:56;10.90;;;7.97;;
49153;SDS011;49455;52.252;9.124;2023-04-06T07:40:57;11.90;;;7.47;;
49153;SDS011;49455;52.252;9.124;2023-04-06T07:45:58;12.13;;;7.13;;
49153;SDS011;49455;52.252;9.124;2023-04-06T07:51:12;12.10;;;7.57;;
49153;SDS011;49455;52.252;9.124;2023-04-06T07:56:15;13.10;;;7.90;;
49153;SDS011;49455;52.252;9.124;2023-04-06T08:01:16;11.88;;;7.28;;
49153;SDS011;49455;52.252;9.124;2023-04-06T08:06:22;15.90;;;7.85;;
49153;SDS011;49455;52.252;9.124;2023-04-06T08:11:23;14.60;;;8.07;;
49153;SDS011;49455;52.252;9.124;2023-04-06T08:16:27;10.65;;;7.72;;
49153;SDS011;49455;52.252;9.124;2023-04-06T08:21:32;12.30;;;7.43;;
49153;SDS011;49455;52.252;9.124;2023-04-06T08:26:33;10.82;;;7.60;;
49153;SDS011;49455;52.252;9.124;2023-04-06T08:31:34;10.10;;;7.07;;
49153;SDS011;49455;52.252;9.124;2023-04-06T08:36:34;11.30;;;7.57;;
49153;SDS011;49455;52.252;9.124;2023-04-06T08:41:35;13.00;;;8.40;;
49153;SDS011;49455;52.252;9.124;2023-04-06T08:46:35;13.50;;;7.32;;
49153;SDS011;49455;52.252;9.124;2023-04-06T08:51:36;12.13;;;7.43;;
49153;SDS011;49455;52.252;9.124;2023-04-06T08:56:38;11.07;;;7.27;;
49153;SDS011;49455;52.252;9.124;2023-04-06T09:01:39;10.10;;;7.72;;
49153;SDS011;49455;52.252;9.124;2023-04-06T09:06:44;15.82;;;9.02;;
49153;SDS011;49455;52.252;9.124;2023-04-06T09:11:45;12.82;;;7.78;;
49153;SDS011;49455;52.252;9.124;2023-04-06T09:16:47;10.50;;;7.78;;
49153;SDS011;49455;52.252;9.124;2023-04-06T09:21:47;11.55;;;8.15;;
49153;SDS011;49455;52.252;9.124;2023-04-06T09:26:48;15.38;;;8.55;;
49153;SDS011;49455;52.252;9.124;2023-04-06T09:31:48;11.40;;;7.80;;
49153;SDS011;49455;52.252;9.124;2023-04-06T09:36:49;13.60;;;8.63;;
49153;SDS011;49455;52.252;9.124;2023-04-06T09:41:50;16.02;;;8.75;;
49153;SDS011;49455;52.252;9.124;2023-04-06T09:46:51;14.52;;;8.55;;
49153;SDS011;49455;52.252;9.124;2023-04-06T09:51:54;16.48;;;8.45;;
49153;SDS011;49455;52.252;9.124;2023-04-06T09:57:13;13.30;;;8.77;;
49153;SDS011;49455;52.252;9.124;2023-04-06T10:02:39;13.00;;;8.70;;
49153;SDS011;49455;52.252;9.124;2023-04-06T10:07:59;13.10;;;9.20;;
49153;SDS011;49455;52.252;9.124;2023-04-06T10:13:11;15.52;;;9.82;;
49153;SDS011;49455;52.252;9.124;2023-04-06T10:18:33;15.00;;;9.48;;
49153;SDS011;49455;52.252;9.124;2023-04-06T10:23:36;14.05;;;9.15;;
49153;SDS011;49455;52.252;9.124;2023-04-06T10:28:44;14.52;;;9.65;;
49153;SDS011;49455;52.252;9.124;2023-04-06T10:33:58;13.23;;;9.57;;
49153;SDS011;49455;52.252;9.124;2023-04-06T10:39:00;16.73;;;10.13;;
49153;SDS011;49455;52.252;9.124;2023-04-06T10:44:04;16.35;;;11.70;;
49153;SDS011;49455;52.252;9.124;2023-04-06T10:49:11;15.98;;;10.35;;
49153;SDS011;49455;52.252;9.124;2023-04-06T10:54:12;16.83;;;10.63;;
49153;SDS011;49455;52.252;9.124;2023-04-06T10:59:20;17.25;;;11.10;;
49153;SDS011;49455;52.252;9.124;2023-04-06T11:04:21;17.30;;;11.32;;
49153;SDS011;49455;52.252;9.124;2023-04-06T11:09:25;22.92;;;11.13;;
49153;SDS011;49455;52.252;9.124;2023-04-06T11:14:26;16.65;;;11.68;;
49153;SDS011;49455;52.252;9.124;2023-04-06T11:19:31;19.52;;;12.38;;
49153;SDS011;49455;52.252;9.124;2023-04-06T11:24:36;17.58;;;12.07;;
49153;SDS011;49455;52.252;9.124;2023-04-06T11:29:37;17.98;;;11.98;;
49153;SDS011;49455;52.252;9.124;2023-04-06T11:34:38;21.83;;;12.55;;
49153;SDS011;49455;52.252;9.124;2023-04-06T11:39:57;20.45;;;13.75;;
49153;SDS011;49455;52.252;9.124;2023-04-06T11:44:59;20.02;;;13.52;;
49153;SDS011;49455;52.252;9.124;2023-04-06T11:50:06;22.30;;;14.25;;
49153;SDS011;49455;52.252;9.124;2023-04-06T11:55:12;19.60;;;12.70;;
49153;SDS011;49455;52.252;9.124;2023-04-06T12:00:16;17.13;;;13.38;;
49153;SDS011;49455;52.252;9.124;2023-04-06T12:05:17;22.00;;;13.17;;
49153;SDS011;49455;52.252;9.124;2023-04-06T12:10:18;19.58;;;12.15;;
49153;SDS011;49455;52.252;9.124;2023-04-06T12:15:19;16.70;;;12.48;;
49153;SDS011;49455;52.252;9.124;2023-04-06T12:20:19;17.02;;;11.85;;
49153;SDS011;49455;52.252;9.124;2023-04-06T12:25:19;16.67;;;12.15;;
49153;SDS011;49455;52.252;9.124;2023-04-06T12:30:20;15.07;;;10.80;;
49153;SDS011;49455;52.252;9.124;2023-04-06T12:35:21;18.67;;;11.90;;
49153;SDS011;49455;52.252;9.124;2023-04-06T12:40:21;18.17;;;12.45;;
49153;SDS011;49455;52.252;9.124;2023-04-06T12:45:21;18.60;;;12.45;;
49153;SDS011;49455;52.252;9.124;2023-04-06T12:50:22;14.43;;;11.18;;
49153;SDS011;49455;52.252;9.124;2023-04-06T12:55:22;16.20;;;11.85;;
49153;SDS011;49455;52.252;9.124;2023-04-06T13:00:23;13.90;;;10.10;;
49153;SDS011;49455;52.252;9.124;2023-04-06T13:05:23;14.63;;;10.85;;
49153;SDS011;49455;52.252;9.124;2023-04-06T13:10:24;15.20;;;10.95;;
49153;SDS011;49455;52.252;9.124;2023-04-06T13:15:24;17.00;;;11.90;;
49153;SDS011;49455;52.252;9.124;2023-04-06T13:20:25;17.60;;;11.57;;
49153;SDS011;49455;52.252;9.124;2023-04-06T13:25:26;14.00;;;11.00;;
49153;SDS011;49455;52.252;9.124;2023-04-06T13:30:29;19.80;;;10.93;;
49153;SDS011;49455;52.252;9.124;2023-04-06T13:35:30;13.85;;;10.63;;
49153;SDS011;49455;52.252;9.124;2023-04-06T13:40:30;19.23;;;11.18;;
49153;SDS011;49455;52.252;9.124;2023-04-06T13:45:30;27.55;;;13.18;;
49153;SDS011;49455;52.252;9.124;2023-04-06T13:50:31;17.25;;;12.63;;
49153;SDS011;49455;52.252;9.124;2023-04-06T13:55:33;16.58;;;12.25;;
49153;SDS011;49455;52.252;9.124;2023-04-06T14:00:33;16.85;;;11.48;;
49153;SDS011;49455;52.252;9.124;2023-04-06T14:05:34;18.70;;;11.98;;
49153;SDS011;49455;52.252;9.124;2023-04-06T14:10:38;18.37;;;13.17;;
49153;SDS011;49455;52.252;9.124;2023-04-06T14:15:39;16.83;;;12.82;;
49153;SDS011;49455;52.252;9.124;2023-04-06T14:20:39;17.42;;;13.52;;
49153;SDS011;49455;52.252;9.124;2023-04-06T14:25:40;18.03;;;13.17;;
49153;SDS011;49455;52.252;9.124;2023-04-06T14:30:40;17.02;;;12.70;;
49153;SDS011;49455;52.252;9.124;2023-04-06T14:35:40;16.90;;;13.63;;
49153;SDS011;49455;52.252;9.124;2023-04-06T14:40:41;19.43;;;13.67;;
49153;SDS011;49455;52.252;9.124;2023-04-06T14:45:41;21.00;;;14.57;;
49153;SDS011;49455;52.252;9.124;2023-04-06T14:50:42;17.73;;;13.60;;
49153;SDS011;49455;52.252;9.124;2023-04-06T14:55:52;21.17;;;15.05;;
49153;SDS011;49455;52.252;9.124;2023-04-06T15:00:56;25.13;;;15.70;;
49153;SDS011;49455;52.252;9.124;2023-04-06T15:05:57;19.92;;;14.88;;
49153;SDS011;49455;52.252;9.124;2023-04-06T15:10:58;19.97;;;15.17;;
49153;SDS011;49455;52.252;9.124;2023-04-06T15:15:59;21.13;;;14.57;;
49153;SDS011;49455;52.252;9.124;2023-04-06T15:20:59;21.87;;;14.97;;
49153;SDS011;49455;52.252;9.124;2023-04-06T15:26:00;23.65;;;14.93;;
49153;SDS011;49455;52.252;9.124;2023-04-06T15:31:01;22.03;;;15.10;;
49153;SDS011;49455;52.252;9.124;2023-04-06T15:36:02;22.33;;;15.90;;
49153;SDS011;49455;52.252;9.124;2023-04-06T15:41:08;23.00;;;15.88;;
49153;SDS011;49455;52.252;9.124;2023-04-06T15:46:08;23.27;;;15.70;;
49153;SDS011;49455;52.252;9.124;2023-04-06T15:51:09;21.70;;;15.13;;
49153;SDS011;49455;52.252;9.124;2023-04-06T15:56:09;22.13;;;15.50;;
49153;SDS011;49455;52.252;9.124;2023-04-06T16:01:13;21.20;;;15.23;;
49153;SDS011;49455;52.252;9.124;2023-04-06T16:06:15;20.60;;;15.10;;
49153;SDS011;49455;52.252;9.124;2023-04-06T16:11:16;18.98;;;14.55;;
49153;SDS011;49455;52.252;9.124;2023-04-06T16:16:19;22.42;;;14.95;;
49153;SDS011;49455;52.252;9.124;2023-04-06T16:21:19;21.85;;;15.15;;
49153;SDS011;49455;52.252;9.124;2023-04-06T16:26:20;24.70;;;15.93;;
49153;SDS011;49455;52.252;9.124;2023-04-06T16:31:21;20.15;;;15.13;;
49153;SDS011;49455;52.252;9.124;2023-04-06T16:36:23;21.60;;;15.23;;
49153;SDS011;49455;52.252;9.124;2023-04-06T16:41:25;20.75;;;14.07;;
49153;SDS011;49455;52.252;9.124;2023-04-06T16:46:31;21.73;;;15.80;;
49153;SDS011;49455;52.252;9.124;2023-04-06T16:51:33;21.80;;;16.80;;
49153;SDS011;49455;52.252;9.124;2023-04-06T16:56:34;29.13;;;20.10;;
49153;SDS011;49455;52.252;9.124;2023-04-06T17:01:34;24.80;;;16.47;;
49153;SDS011;49455;52.252;9.124;2023-04-06T17:06:34;22.75;;;15.93;;
49153;SDS011;49455;52.252;9.124;2023-04-06T17:11:37;20.90;;;14.77;;
49153;SDS011;49455;52.252;9.124;2023-04-06T17:16:38;22.45;;;14.73;;
49153;SDS011;49455;52.252;9.124;2023-04-06T17:21:39;19.75;;;13.52;;
49153;SDS011;49455;52.252;9.124;2023-04-06T17:26:39;19.83;;;13.80;;
49153;SDS011;49455;52.252;9.124;2023-04-06T17:31:42;22.60;;;14.43;;
49153;SDS011;49455;52.252;9.124;2023-04-06T17:36:43;20.25;;;14.82;;
49153;SDS011;49455;52.252;9.124;2023-04-06T17:41:43;21.77;;;15.25;;
49153;SDS011;49455;52.252;9.124;2023-04-06T17:46:44;20.25;;;14.57;;
49153;SDS011;49455;52.252;9.124;2023-04-06T17:51:44;21.58;;;14.15;;
49153;SDS011;49455;52.252;9.124;2023-04-06T17:56:44;19.08;;;13.52;;
49153;SDS011;49455;52.252;9.124;2023-04-06T18:01:45;22.00;;;15.02;;
49153;SDS011;49455;52.252;9.124;2023-04-06T18:06:45;23.30;;;16.20;;
49153;SDS011;49455;52.252;9.124;2023-04-06T18:16:49;26.02;;;16.60;;
49153;SDS011;49455;52.252;9.124;2023-04-06T18:21:50;23.25;;;14.63;;
49153;SDS011;49455;52.252;9.124;2023-04-06T18:26:50;18.80;;;12.82;;
49153;SDS011;49455;52.252;9.124;2023-04-06T18:31:51;17.52;;;12.65;;
49153;SDS011;49455;52.252;9.124;2023-04-06T18:36:51;19.23;;;13.10;;
49153;SDS011;49455;52.252;9.124;2023-04-06T18:41:53;18.80;;;13.05;;
49153;SDS011;49455;52.252;9.124;2023-04-06T18:46:53;19.67;;;12.30;;
49153;SDS011;49455;52.252;9.124;2023-04-06T18:51:54;20.45;;;12.88;;
49153;SDS011;49455;52.252;9.124;2023-04-06T18:56:54;18.05;;;11.60;;
49153;SDS011;49455;52.252;9.124;2023-04-06T19:01:55;20.13;;;12.05;;
49153;SDS011;49455;52.252;9.124;2023-04-06T19:07:01;19.55;;;12.30;;
49153;SDS011;49455;52.252;9.124;2023-04-06T19:12:01;17.83;;;11.65;;
49153;SDS011;49455;52.252;9.124;2023-04-06T19:17:02;16.00;;;11.88;;
49153;SDS011;49455;52.252;9.124;2023-04-06T19:22:02;20.50;;;13.15;;
49153;SDS011;49455;52.252;9.124;2023-04-06T19:27:02;17.83;;;12.73;;
49153;SDS011;49455;52.252;9.124;2023-04-06T19:32:03;19.13;;;12.25;;
49153;SDS011;49455;52.252;9.124;2023-04-06T19:37:04;18.70;;;12.80;;
49153;SDS011;49455;52.252;9.124;2023-04-06T19:42:04;19.83;;;12.88;;
49153;SDS011;49455;52.252;9.124;2023-04-06T19:47:05;19.08;;;13.00;;
49153;SDS011;49455;52.252;9.124;2023-04-06T19:52:05;19.50;;;14.60;;
49153;SDS011;49455;52.252;9.124;2023-04-06T19:57:06;21.52;;;13.02;;
49153;SDS011;49455;52.252;9.124;2023-04-06T20:02:07;18.30;;;12.80;;
49153;SDS011;49455;52.252;9.124;2023-04-06T20:07:07;28.30;;;16.17;;
49153;SDS011;49455;52.252;9.124;2023-04-06T20:12:09;20.33;;;13.30;;
49153;SDS011;49455;52.252;9.124;2023-04-06T20:17:09;19.42;;;12.38;;
49153;SDS011;49455;52.252;9.124;2023-04-06T20:22:10;18.27;;;12.40;;
49153;SDS011;49455;52.252;9.124;2023-04-06T20:27:10;23.00;;;13.20;;
49153;SDS011;49455;52.252;9.124;2023-04-06T20:32:11;21.20;;;12.65;;
49153;SDS011;49455;52.252;9.124;2023-04-06T20:37:12;17.55;;;11.63;;
49153;SDS011;49455;52.252;9.124;2023-04-06T20:42:12;19.58;;;12.55;;
49153;SDS011;49455;52.252;9.124;2023-04-06T20:47:13;21.15;;;13.82;;
49153;SDS011;49455;52.252;9.124;2023-04-06T20:52:13;17.30;;;12.52;;
49153;SDS011;49455;52.252;9.124;2023-04-06T20:57:14;20.85;;;13.38;;
49153;SDS011;49455;52.252;9.124;2023-04-06T21:02:14;19.48;;;12.15;;
49153;SDS011;49455;52.252;9.124;2023-04-06T21:07:15;21.48;;;13.45;;
49153;SDS011;49455;52.252;9.124;2023-04-06T21:12:15;21.60;;;12.88;;
49153;SDS011;49455;52.252;9.124;2023-04-06T21:17:15;21.45;;;13.68;;
49153;SDS011;49455;52.252;9.124;2023-04-06T21:22:16;15.90;;;12.05;;
49153;SDS011;49455;52.252;9.124;2023-04-06T21:27:16;17.63;;;11.98;;
49153;SDS011;49455;52.252;9.124;2023-04-06T21:32:17;18.30;;;11.65;;
49153;SDS011;49455;52.252;9.124;2023-04-06T21:37:17;17.02;;;11.48;;
49153;SDS011;49455;52.252;9.124;2023-04-06T21:42:18;17.00;;;11.13;;
49153;SDS011;49455;52.252;9.124;2023-04-06T21:47:18;18.15;;;11.15;;
49153;SDS011;49455;52.252;9.124;2023-04-06T21:52:18;17.90;;;12.23;;
49153;SDS011;49455;52.252;9.124;2023-04-06T21:57:19;22.13;;;12.57;;
49153;SDS011;49455;52.252;9.124;2023-04-06T22:02:19;18.85;;;11.75;;
49153;SDS011;49455;52.252;9.124;2023-04-06T22:07:20;21.27;;;12.63;;
49153;SDS011;49455;52.252;9.124;2023-04-06T22:12:21;18.42;;;11.57;;
49153;SDS011;49455;52.252;9.124;2023-04-06T22:17:22;18.98;;;11.98;;
49153;SDS011;49455;52.252;9.124;2023-04-06T22:22:23;21.55;;;12.77;;
49153;SDS011;49455;52.252;9.124;2023-04-06T22:27:23;18.20;;;11.87;;
49153;SDS011;49455;52.252;9.124;2023-04-06T22:32:24;18.45;;;11.80;;
49153;SDS011;49455;52.252;9.124;2023-04-06T22:37:24;18.08;;;11.95;;
49153;SDS011;49455;52.252;9.124;2023-04-06T22:42:25;17.80;;;12.15;;
49153;SDS011;49455;52.252;9.124;2023-04-06T22:47:25;18.70;;;11.38;;
49153;SDS011;49455;52.252;9.124;2023-04-06T22:52:25;20.10;;;12.65;;
49153;SDS011;49455;52.252;9.124;2023-04-06T22:57:26;19.80;;;12.80;;
49153;SDS011;49455;52.252;9.124;2023-04-06T23:02:26;23.52;;;13.80;;
49153;SDS011;49455;52.252;9.124;2023-04-06T23:07:27;22.25;;;13.75;;
49153;SDS011;49455;52.252;9.124;2023-04-06T23:12:28;23.08;;;13.80;;
49153;SDS011;49455;52.252;9.124;2023-04-06T23:17:28;25.55;;;14.38;;
49153;SDS011;49455;52.252;9.124;2023-04-06T23:22:28;27.10;;;14.52;;
49153;SDS011;49455;52.252;9.124;2023-04-06T23:27:29;23.70;;;13.77;;
49153;SDS011;49455;52.252;9.124;2023-04-06T23:32:29;23.90;;;13.80;;
49153;SDS011;49455;52.252;9.124;2023-04-06T23:37:30;25.90;;;14.40;;
49153;SDS011;49455;52.252;9.124;2023-04-06T23:42:30;26.55;;;14.18;;
49153;SDS011;49455;52.252;9.124;2023-04-06T23:47:31;23.83;;;14.45;;
49153;SDS011;49455;52.252;9.124;2023-04-06T23:52:31;24.55;;;14.05;;
49153;SDS011;49455;52.252;9.124;2023-04-06T23:57:31;24.38;;;15.32;;
